sensor_id;sensor_type;location;lat;lon;timestamp;P1;durP1;ratioP1;P2;durP2;ratioP2
71637;SDS011;59485;43.542;-5.676;2022-09-20T00:03:37;9.97;;;2.30;;
71637;SDS011;59485;43.542;-5.676;2022-09-20T00:06:05;6.80;;;2.13;;
71637;SDS011;59485;43.542;-5.676;2022-09-20T00:08:33;7.25;;;2.60;;
71637;SDS011;59485;43.542;-5.676;2022-09-20T00:11:03;8.90;;;2.40;;
71637;SDS011;59485;43.542;-5.676;2022-09-20T00:13:31;5.97;;;2.60;;
71637;SDS011;59485;43.542;-5.676;2022-09-20T00:15:57;5.77;;;2.03;;
71637;SDS011;59485;43.542;-5.676;2022-09-20T00:18:24;8.98;;;2.22;;
71637;SDS011;59485;43.542;-5.676;2022-09-20T00:20:50;5.60;;;2.15;;
71637;SDS011;59485;43.542;-5.676;2022-09-20T00:23:17;8.00;;;2.30;;
71637;SDS011;59485;43.542;-5.676;2022-09-20T00:25:55;7.72;;;2.38;;
71637;SDS011;59485;43.542;-5.676;2022-09-20T00:28:22;6.20;;;2.20;;
71637;SDS011;59485;43.542;-5.676;2022-09-20T00:30:48;6.38;;;2.17;;
71637;SDS011;59485;43.542;-5.676;2022-09-20T00:33:14;8.43;;;2.15;;
71637;SDS011;59485;43.542;-5.676;2022-09-20T00:35:42;8.63;;;2.57;;
71637;SDS011;59485;43.542;-5.676;2022-09-20T00:38:08;6.78;;;1.88;;
71637;SDS011;59485;43.542;-5.676;2022-09-20T00:40:36;8.45;;;2.50;;
71637;SDS011;59485;43.542;-5.676;2022-09-20T00:43:01;6.60;;;1.73;;
71637;SDS011;59485;43.542;-5.676;2022-09-20T00:45:28;7.70;;;2.10;;
71637;SDS011;59485;43.542;-5.676;2022-09-20T00:53:36;7.07;;;1.85;;
71637;SDS011;59485;43.542;-5.676;2022-09-20T00:59:00;6.60;;;1.80;;
71637;SDS011;59485;43.542;-5.676;2022-09-20T01:01:32;5.68;;;1.73;;
71637;SDS011;59485;43.542;-5.676;2022-09-20T01:04:02;6.13;;;2.00;;
71637;SDS011;59485;43.542;-5.676;2022-09-20T01:06:27;8.00;;;1.75;;
71637;SDS011;59485;43.542;-5.676;2022-09-20T01:08:55;7.88;;;1.92;;
71637;SDS011;59485;43.542;-5.676;2022-09-20T01:11:44;5.55;;;2.00;;
71637;SDS011;59485;43.542;-5.676;2022-09-20T01:14:14;6.95;;;2.00;;
71637;SDS011;59485;43.542;-5.676;2022-09-20T01:16:43;7.43;;;1.60;;
71637;SDS011;59485;43.542;-5.676;2022-09-20T01:19:13;8.00;;;1.80;;
71637;SDS011;59485;43.542;-5.676;2022-09-20T01:21:44;6.80;;;1.80;;
71637;SDS011;59485;43.542;-5.676;2022-09-20T01:30:21;7.60;;;1.80;;
71637;SDS011;59485;43.542;-5.676;2022-09-20T01:35:54;6.78;;;2.30;;
71637;SDS011;59485;43.542;-5.676;2022-09-20T01:46:49;5.57;;;1.52;;
71637;SDS011;59485;43.542;-5.676;2022-09-20T01:49:28;7.10;;;1.85;;
71637;SDS011;59485;43.542;-5.676;2022-09-20T01:58:10;5.63;;;1.83;;
71637;SDS011;59485;43.542;-5.676;2022-09-20T02:04:20;7.95;;;2.47;;
71637;SDS011;59485;43.542;-5.676;2022-09-20T02:12:21;10.83;;;2.83;;
71637;SDS011;59485;43.542;-5.676;2022-09-20T02:14:58;8.95;;;2.95;;
71637;SDS011;59485;43.542;-5.676;2022-09-20T02:30:37;15.63;;;3.83;;
71637;SDS011;59485;43.542;-5.676;2022-09-20T02:38:45;10.65;;;3.50;;
71637;SDS011;59485;43.542;-5.676;2022-09-20T02:49:35;13.75;;;3.70;;
71637;SDS011;59485;43.542;-5.676;2022-09-20T02:55:19;12.50;;;4.15;;
71637;SDS011;59485;43.542;-5.676;2022-09-20T03:00:47;9.77;;;3.60;;
71637;SDS011;59485;43.542;-5.676;2022-09-20T03:06:32;12.35;;;3.78;;
71637;SDS011;59485;43.542;-5.676;2022-09-20T03:15:15;10.63;;;3.67;;
71637;SDS011;59485;43.542;-5.676;2022-09-20T03:21:08;13.13;;;3.90;;
71637;SDS011;59485;43.542;-5.676;2022-09-20T03:43:18;13.73;;;3.63;;
71637;SDS011;59485;43.542;-5.676;2022-09-20T04:04:55;16.70;;;5.82;;
71637;SDS011;59485;43.542;-5.676;2022-09-20T04:10:52;11.63;;;4.80;;
71637;SDS011;59485;43.542;-5.676;2022-09-20T04:16:47;11.15;;;4.75;;
71637;SDS011;59485;43.542;-5.676;2022-09-20T04:19:38;12.00;;;4.90;;
71637;SDS011;59485;43.542;-5.676;2022-09-20T04:22:15;18.48;;;6.35;;
71637;SDS011;59485;43.542;-5.676;2022-09-20T04:27:36;19.15;;;5.70;;
71637;SDS011;59485;43.542;-5.676;2022-09-20T04:32:34;13.63;;;5.15;;
71637;SDS011;59485;43.542;-5.676;2022-09-20T04:38:02;14.37;;;4.67;;
71637;SDS011;59485;43.542;-5.676;2022-09-20T04:41:05;15.63;;;5.72;;
71637;SDS011;59485;43.542;-5.676;2022-09-20T04:46:30;13.60;;;4.45;;
71637;SDS011;59485;43.542;-5.676;2022-09-20T05:01:32;13.27;;;5.60;;
71637;SDS011;59485;43.542;-5.676;2022-09-20T05:23:46;17.48;;;8.85;;
71637;SDS011;59485;43.542;-5.676;2022-09-20T05:29:04;19.75;;;8.55;;
71637;SDS011;59485;43.542;-5.676;2022-09-20T05:34:23;18.83;;;11.17;;
71637;SDS011;59485;43.542;-5.676;2022-09-20T05:37:01;21.42;;;11.32;;
71637;SDS011;59485;43.542;-5.676;2022-09-20T05:45:46;13.05;;;7.88;;
71637;SDS011;59485;43.542;-5.676;2022-09-20T05:48:13;16.93;;;8.17;;
71637;SDS011;59485;43.542;-5.676;2022-09-20T05:50:57;14.18;;;8.52;;
71637;SDS011;59485;43.542;-5.676;2022-09-20T05:57:20;18.60;;;9.70;;
71637;SDS011;59485;43.542;-5.676;2022-09-20T06:02:31;19.70;;;9.50;;
71637;SDS011;59485;43.542;-5.676;2022-09-20T06:05:12;16.48;;;9.73;;
71637;SDS011;59485;43.542;-5.676;2022-09-20T06:16:01;32.77;;;15.77;;
71637;SDS011;59485;43.542;-5.676;2022-09-20T06:24:15;14.65;;;8.82;;
71637;SDS011;59485;43.542;-5.676;2022-09-20T06:26:50;19.27;;;12.02;;
71637;SDS011;59485;43.542;-5.676;2022-09-20T06:29:23;17.27;;;11.50;;
71637;SDS011;59485;43.542;-5.676;2022-09-20T06:31:54;20.42;;;10.77;;
71637;SDS011;59485;43.542;-5.676;2022-09-20T06:34:19;16.65;;;9.43;;
71637;SDS011;59485;43.542;-5.676;2022-09-20T06:36:49;16.53;;;8.43;;
71637;SDS011;59485;43.542;-5.676;2022-09-20T06:42:36;17.42;;;8.02;;
71637;SDS011;59485;43.542;-5.676;2022-09-20T06:45:03;16.95;;;8.77;;
71637;SDS011;59485;43.542;-5.676;2022-09-20T06:47:29;19.13;;;9.45;;
71637;SDS011;59485;43.542;-5.676;2022-09-20T06:49:54;17.90;;;8.03;;
71637;SDS011;59485;43.542;-5.676;2022-09-20T06:52:20;14.65;;;7.95;;
71637;SDS011;59485;43.542;-5.676;2022-09-20T06:54:48;17.33;;;8.87;;
71637;SDS011;59485;43.542;-5.676;2022-09-20T06:57:21;17.25;;;8.95;;
71637;SDS011;59485;43.542;-5.676;2022-09-20T06:59:51;19.15;;;8.57;;
71637;SDS011;59485;43.542;-5.676;2022-09-20T07:02:16;12.17;;;5.70;;
71637;SDS011;59485;43.542;-5.676;2022-09-20T07:04:42;12.70;;;5.20;;
71637;SDS011;59485;43.542;-5.676;2022-09-20T07:07:14;10.67;;;4.97;;
71637;SDS011;59485;43.542;-5.676;2022-09-20T07:09:42;13.93;;;4.63;;
71637;SDS011;59485;43.542;-5.676;2022-09-20T07:12:07;7.60;;;3.67;;
71637;SDS011;59485;43.542;-5.676;2022-09-20T07:14:35;9.13;;;3.83;;
71637;SDS011;59485;43.542;-5.676;2022-09-20T07:17:01;7.30;;;2.75;;
71637;SDS011;59485;43.542;-5.676;2022-09-20T07:19:27;8.73;;;3.00;;
71637;SDS011;59485;43.542;-5.676;2022-09-20T07:21:52;9.43;;;3.10;;
71637;SDS011;59485;43.542;-5.676;2022-09-20T07:24:18;7.67;;;2.80;;
71637;SDS011;59485;43.542;-5.676;2022-09-20T07:26:54;9.75;;;3.50;;
71637;SDS011;59485;43.542;-5.676;2022-09-20T07:29:21;11.67;;;3.70;;
71637;SDS011;59485;43.542;-5.676;2022-09-20T07:31:47;12.07;;;4.38;;
71637;SDS011;59485;43.542;-5.676;2022-09-20T07:34:14;14.38;;;5.00;;
71637;SDS011;59485;43.542;-5.676;2022-09-20T07:36:42;12.65;;;5.20;;
71637;SDS011;59485;43.542;-5.676;2022-09-20T07:39:08;8.90;;;5.07;;
71637;SDS011;59485;43.542;-5.676;2022-09-20T07:41:33;16.40;;;6.10;;
71637;SDS011;59485;43.542;-5.676;2022-09-20T07:43:59;15.53;;;6.43;;
71637;SDS011;59485;43.542;-5.676;2022-09-20T07:46:46;17.17;;;5.97;;
71637;SDS011;59485;43.542;-5.676;2022-09-20T07:49:12;9.23;;;5.17;;
71637;SDS011;59485;43.542;-5.676;2022-09-20T07:51:38;13.20;;;5.20;;
71637;SDS011;59485;43.542;-5.676;2022-09-20T07:54:03;12.80;;;5.93;;
71637;SDS011;59485;43.542;-5.676;2022-09-20T07:56:29;13.47;;;5.57;;
71637;SDS011;59485;43.542;-5.676;2022-09-20T07:58:54;15.63;;;6.32;;
71637;SDS011;59485;43.542;-5.676;2022-09-20T08:01:20;12.33;;;6.17;;
71637;SDS011;59485;43.542;-5.676;2022-09-20T08:03:46;12.75;;;6.00;;
71637;SDS011;59485;43.542;-5.676;2022-09-20T08:06:12;11.60;;;6.57;;
71637;SDS011;59485;43.542;-5.676;2022-09-20T08:08:40;18.63;;;7.57;;
71637;SDS011;59485;43.542;-5.676;2022-09-20T08:11:07;23.45;;;11.35;;
71637;SDS011;59485;43.542;-5.676;2022-09-20T08:13:49;30.00;;;13.35;;
71637;SDS011;59485;43.542;-5.676;2022-09-20T08:16:16;23.10;;;10.83;;
71637;SDS011;59485;43.542;-5.676;2022-09-20T08:18:59;17.45;;;7.97;;
71637;SDS011;59485;43.542;-5.676;2022-09-20T08:21:35;18.80;;;5.97;;
71637;SDS011;59485;43.542;-5.676;2022-09-20T08:24:02;25.98;;;5.70;;
71637;SDS011;59485;43.542;-5.676;2022-09-20T08:26:28;22.90;;;5.50;;
71637;SDS011;59485;43.542;-5.676;2022-09-20T08:28:56;12.77;;;5.00;;
71637;SDS011;59485;43.542;-5.676;2022-09-20T08:31:23;12.15;;;5.40;;
71637;SDS011;59485;43.542;-5.676;2022-09-20T08:33:51;19.45;;;5.57;;
71637;SDS011;59485;43.542;-5.676;2022-09-20T08:36:19;10.15;;;4.47;;
71637;SDS011;59485;43.542;-5.676;2022-09-20T08:38:46;13.67;;;4.40;;
71637;SDS011;59485;43.542;-5.676;2022-09-20T08:41:19;12.75;;;4.95;;
71637;SDS011;59485;43.542;-5.676;2022-09-20T08:43:51;15.35;;;4.82;;
71637;SDS011;59485;43.542;-5.676;2022-09-20T08:46:24;15.27;;;5.63;;
71637;SDS011;59485;43.542;-5.676;2022-09-20T08:48:56;18.07;;;5.70;;
71637;SDS011;59485;43.542;-5.676;2022-09-20T08:51:22;18.02;;;6.82;;
71637;SDS011;59485;43.542;-5.676;2022-09-20T08:53:48;15.52;;;6.38;;
71637;SDS011;59485;43.542;-5.676;2022-09-20T08:56:18;18.40;;;6.50;;
71637;SDS011;59485;43.542;-5.676;2022-09-20T08:58:44;16.55;;;6.28;;
71637;SDS011;59485;43.542;-5.676;2022-09-20T09:01:13;15.50;;;5.33;;
71637;SDS011;59485;43.542;-5.676;2022-09-20T09:03:44;18.13;;;4.70;;
71637;SDS011;59485;43.542;-5.676;2022-09-20T09:06:11;14.55;;;3.65;;
71637;SDS011;59485;43.542;-5.676;2022-09-20T09:08:39;13.65;;;3.65;;
71637;SDS011;59485;43.542;-5.676;2022-09-20T09:11:13;12.43;;;2.80;;
71637;SDS011;59485;43.542;-5.676;2022-09-20T09:14:01;7.73;;;2.57;;
71637;SDS011;59485;43.542;-5.676;2022-09-20T09:16:51;8.82;;;2.45;;
71637;SDS011;59485;43.542;-5.676;2022-09-20T09:19:28;14.68;;;2.20;;
71637;SDS011;59485;43.542;-5.676;2022-09-20T09:21:57;7.45;;;2.28;;
71637;SDS011;59485;43.542;-5.676;2022-09-20T09:24:24;8.52;;;1.98;;
71637;SDS011;59485;43.542;-5.676;2022-09-20T09:27:05;7.80;;;2.23;;
71637;SDS011;59485;43.542;-5.676;2022-09-20T09:29:31;10.88;;;1.98;;
71637;SDS011;59485;43.542;-5.676;2022-09-20T09:31:57;11.53;;;2.83;;
71637;SDS011;59485;43.542;-5.676;2022-09-20T09:34:47;16.85;;;2.85;;
71637;SDS011;59485;43.542;-5.676;2022-09-20T09:40:17;12.67;;;2.77;;
71637;SDS011;59485;43.542;-5.676;2022-09-20T09:42:53;8.45;;;1.80;;
71637;SDS011;59485;43.542;-5.676;2022-09-20T09:45:25;8.95;;;2.75;;
71637;SDS011;59485;43.542;-5.676;2022-09-20T09:50:48;10.70;;;2.50;;
71637;SDS011;59485;43.542;-5.676;2022-09-20T09:53:22;9.00;;;2.33;;
71637;SDS011;59485;43.542;-5.676;2022-09-20T10:00:59;6.45;;;2.10;;
71637;SDS011;59485;43.542;-5.676;2022-09-20T10:03:41;8.77;;;2.63;;
71637;SDS011;59485;43.542;-5.676;2022-09-20T10:06:20;7.10;;;1.95;;
71637;SDS011;59485;43.542;-5.676;2022-09-20T10:16:49;8.17;;;2.20;;
71637;SDS011;59485;43.542;-5.676;2022-09-20T10:22:40;11.13;;;2.20;;
71637;SDS011;59485;43.542;-5.676;2022-09-20T10:36:10;11.13;;;2.70;;
71637;SDS011;59485;43.542;-5.676;2022-09-20T10:38:44;10.13;;;1.95;;
71637;SDS011;59485;43.542;-5.676;2022-09-20T10:41:25;10.85;;;3.33;;
71637;SDS011;59485;43.542;-5.676;2022-09-20T10:47:06;12.80;;;2.10;;
71637;SDS011;59485;43.542;-5.676;2022-09-20T10:49:42;8.63;;;2.33;;
71637;SDS011;59485;43.542;-5.676;2022-09-20T10:57:46;12.60;;;2.50;;
71637;SDS011;59485;43.542;-5.676;2022-09-20T11:00:47;10.50;;;2.10;;
71637;SDS011;59485;43.542;-5.676;2022-09-20T11:09:06;13.77;;;2.90;;
71637;SDS011;59485;43.542;-5.676;2022-09-20T11:11:38;8.68;;;2.13;;
71637;SDS011;59485;43.542;-5.676;2022-09-20T11:17:11;7.87;;;1.97;;
71637;SDS011;59485;43.542;-5.676;2022-09-20T11:22:39;6.03;;;1.70;;
71637;SDS011;59485;43.542;-5.676;2022-09-20T11:25:17;7.13;;;2.05;;
71637;SDS011;59485;43.542;-5.676;2022-09-20T11:27:54;10.60;;;2.90;;
71637;SDS011;59485;43.542;-5.676;2022-09-20T11:30:33;9.67;;;3.43;;
71637;SDS011;59485;43.542;-5.676;2022-09-20T11:33:27;8.70;;;3.83;;
71637;SDS011;59485;43.542;-5.676;2022-09-20T11:36:05;13.70;;;3.75;;
71637;SDS011;59485;43.542;-5.676;2022-09-20T11:43:44;9.30;;;2.87;;
71637;SDS011;59485;43.542;-5.676;2022-09-20T11:46:18;9.38;;;3.15;;
71637;SDS011;59485;43.542;-5.676;2022-09-20T11:49:09;8.00;;;2.67;;
71637;SDS011;59485;43.542;-5.676;2022-09-20T11:57:12;9.57;;;1.93;;
71637;SDS011;59485;43.542;-5.676;2022-09-20T11:59:41;12.20;;;2.70;;
71637;SDS011;59485;43.542;-5.676;2022-09-20T12:02:17;13.48;;;3.03;;
71637;SDS011;59485;43.542;-5.676;2022-09-20T12:04:44;10.77;;;3.53;;
71637;SDS011;59485;43.542;-5.676;2022-09-20T12:07:17;9.40;;;3.20;;
71637;SDS011;59485;43.542;-5.676;2022-09-20T12:09:54;13.63;;;3.67;;
71637;SDS011;59485;43.542;-5.676;2022-09-20T12:15:06;10.55;;;2.78;;
71637;SDS011;59485;43.542;-5.676;2022-09-20T12:28:38;13.53;;;4.10;;
71637;SDS011;59485;43.542;-5.676;2022-09-20T12:36:25;10.82;;;3.67;;
71637;SDS011;59485;43.542;-5.676;2022-09-20T12:41:50;12.33;;;3.40;;
71637;SDS011;59485;43.542;-5.676;2022-09-20T12:44:33;9.18;;;2.30;;
71637;SDS011;59485;43.542;-5.676;2022-09-20T12:47:50;9.43;;;3.33;;
71637;SDS011;59485;43.542;-5.676;2022-09-20T12:50:16;10.32;;;2.08;;
71637;SDS011;59485;43.542;-5.676;2022-09-20T12:53:03;21.73;;;3.17;;
71637;SDS011;59485;43.542;-5.676;2022-09-20T13:03:27;7.97;;;2.60;;
71637;SDS011;59485;43.542;-5.676;2022-09-20T13:24:36;20.35;;;3.83;;
71637;SDS011;59485;43.542;-5.676;2022-09-20T13:27:20;16.88;;;4.20;;
71637;SDS011;59485;43.542;-5.676;2022-09-20T13:29:48;14.55;;;4.00;;
71637;SDS011;59485;43.542;-5.676;2022-09-20T13:32:25;8.25;;;2.65;;
71637;SDS011;59485;43.542;-5.676;2022-09-20T13:37:30;11.80;;;2.50;;
71637;SDS011;59485;43.542;-5.676;2022-09-20T13:39:56;21.77;;;3.83;;
71637;SDS011;59485;43.542;-5.676;2022-09-20T13:42:23;25.90;;;3.75;;
71637;SDS011;59485;43.542;-5.676;2022-09-20T13:44:52;10.55;;;2.70;;
71637;SDS011;59485;43.542;-5.676;2022-09-20T13:47:25;21.23;;;3.67;;
71637;SDS011;59485;43.542;-5.676;2022-09-20T13:49:59;14.15;;;3.28;;
71637;SDS011;59485;43.542;-5.676;2022-09-20T13:52:27;24.95;;;4.60;;
71637;SDS011;59485;43.542;-5.676;2022-09-20T13:54:54;23.85;;;4.30;;
71637;SDS011;59485;43.542;-5.676;2022-09-20T13:57:21;29.13;;;4.10;;
71637;SDS011;59485;43.542;-5.676;2022-09-20T13:59:50;21.13;;;3.55;;
71637;SDS011;59485;43.542;-5.676;2022-09-20T14:02:30;29.15;;;5.63;;
71637;SDS011;59485;43.542;-5.676;2022-09-20T14:04:58;13.93;;;3.30;;
71637;SDS011;59485;43.542;-5.676;2022-09-20T14:07:26;9.32;;;2.92;;
71637;SDS011;59485;43.542;-5.676;2022-09-20T14:09:54;11.75;;;3.53;;
71637;SDS011;59485;43.542;-5.676;2022-09-20T14:12:21;16.42;;;6.13;;
71637;SDS011;59485;43.542;-5.676;2022-09-20T14:14:49;15.45;;;6.13;;
71637;SDS011;59485;43.542;-5.676;2022-09-20T14:17:18;20.63;;;5.50;;
71637;SDS011;59485;43.542;-5.676;2022-09-20T14:19:50;25.58;;;5.70;;
71637;SDS011;59485;43.542;-5.676;2022-09-20T14:22:19;14.57;;;3.85;;
71637;SDS011;59485;43.542;-5.676;2022-09-20T14:27:43;38.00;;;11.15;;
71637;SDS011;59485;43.542;-5.676;2022-09-20T14:33:02;20.02;;;3.40;;
71637;SDS011;59485;43.542;-5.676;2022-09-20T14:35:31;20.70;;;5.25;;
71637;SDS011;59485;43.542;-5.676;2022-09-20T14:38:06;43.10;;;7.83;;
71637;SDS011;59485;43.542;-5.676;2022-09-20T14:40:41;30.92;;;11.30;;
71637;SDS011;59485;43.542;-5.676;2022-09-20T14:45:53;17.35;;;3.05;;
71637;SDS011;59485;43.542;-5.676;2022-09-20T14:53:36;16.35;;;4.07;;
71637;SDS011;59485;43.542;-5.676;2022-09-20T14:58:28;15.13;;;3.30;;
71637;SDS011;59485;43.542;-5.676;2022-09-20T15:00:56;21.97;;;2.33;;
71637;SDS011;59485;43.542;-5.676;2022-09-20T15:03:37;41.20;;;4.40;;
71637;SDS011;59485;43.542;-5.676;2022-09-20T15:06:05;28.25;;;3.88;;
71637;SDS011;59485;43.542;-5.676;2022-09-20T15:08:34;21.25;;;3.20;;
71637;SDS011;59485;43.542;-5.676;2022-09-20T15:11:00;26.88;;;3.58;;
71637;SDS011;59485;43.542;-5.676;2022-09-20T15:13:26;27.07;;;3.57;;
71637;SDS011;59485;43.542;-5.676;2022-09-20T15:15:52;27.08;;;3.70;;
71637;SDS011;59485;43.542;-5.676;2022-09-20T15:18:22;15.30;;;2.10;;
71637;SDS011;59485;43.542;-5.676;2022-09-20T15:20:52;49.67;;;5.25;;
71637;SDS011;59485;43.542;-5.676;2022-09-20T15:23:19;39.72;;;4.25;;
71637;SDS011;59485;43.542;-5.676;2022-09-20T15:25:45;52.13;;;3.92;;
71637;SDS011;59485;43.542;-5.676;2022-09-20T15:28:14;41.67;;;4.35;;
71637;SDS011;59485;43.542;-5.676;2022-09-20T15:30:46;34.40;;;2.63;;
71637;SDS011;59485;43.542;-5.676;2022-09-20T15:33:14;55.10;;;3.10;;
71637;SDS011;59485;43.542;-5.676;2022-09-20T15:35:40;32.40;;;2.47;;
71637;SDS011;59485;43.542;-5.676;2022-09-20T15:38:07;24.80;;;2.15;;
71637;SDS011;59485;43.542;-5.676;2022-09-20T15:40:45;24.70;;;2.45;;
71637;SDS011;59485;43.542;-5.676;2022-09-20T15:43:16;17.50;;;1.87;;
71637;SDS011;59485;43.542;-5.676;2022-09-20T15:45:50;15.30;;;1.30;;
71637;SDS011;59485;43.542;-5.676;2022-09-20T15:48:17;21.65;;;2.30;;
71637;SDS011;59485;43.542;-5.676;2022-09-20T15:50:58;11.50;;;1.52;;
71637;SDS011;59485;43.542;-5.676;2022-09-20T15:53:34;17.88;;;1.90;;
71637;SDS011;59485;43.542;-5.676;2022-09-20T15:56:12;15.70;;;1.80;;
71637;SDS011;59485;43.542;-5.676;2022-09-20T15:59:12;11.25;;;1.08;;
71637;SDS011;59485;43.542;-5.676;2022-09-20T16:01:40;10.68;;;1.52;;
71637;SDS011;59485;43.542;-5.676;2022-09-20T16:04:16;12.57;;;1.33;;
71637;SDS011;59485;43.542;-5.676;2022-09-20T16:06:44;8.00;;;1.13;;
71637;SDS011;59485;43.542;-5.676;2022-09-20T16:09:11;12.00;;;1.10;;
71637;SDS011;59485;43.542;-5.676;2022-09-20T16:11:37;11.82;;;1.65;;
71637;SDS011;59485;43.542;-5.676;2022-09-20T16:14:04;8.98;;;1.13;;
71637;SDS011;59485;43.542;-5.676;2022-09-20T16:16:30;12.68;;;1.42;;
71637;SDS011;59485;43.542;-5.676;2022-09-20T16:18:58;10.90;;;1.60;;
71637;SDS011;59485;43.542;-5.676;2022-09-20T16:21:44;11.47;;;1.27;;
71637;SDS011;59485;43.542;-5.676;2022-09-20T16:24:14;10.38;;;1.35;;
71637;SDS011;59485;43.542;-5.676;2022-09-20T16:26:40;8.80;;;1.35;;
71637;SDS011;59485;43.542;-5.676;2022-09-20T16:29:06;14.02;;;0.90;;
71637;SDS011;59485;43.542;-5.676;2022-09-20T16:34:02;10.15;;;1.77;;
71637;SDS011;59485;43.542;-5.676;2022-09-20T16:36:32;6.93;;;0.80;;
71637;SDS011;59485;43.542;-5.676;2022-09-20T16:38:57;9.63;;;1.15;;
71637;SDS011;59485;43.542;-5.676;2022-09-20T16:41:24;6.77;;;1.40;;
71637;SDS011;59485;43.542;-5.676;2022-09-20T16:43:51;16.15;;;1.50;;
71637;SDS011;59485;43.542;-5.676;2022-09-20T16:46:18;8.82;;;1.20;;
71637;SDS011;59485;43.542;-5.676;2022-09-20T16:48:45;10.02;;;0.80;;
71637;SDS011;59485;43.542;-5.676;2022-09-20T16:51:12;10.23;;;1.25;;
71637;SDS011;59485;43.542;-5.676;2022-09-20T16:53:39;7.67;;;1.60;;
71637;SDS011;59485;43.542;-5.676;2022-09-20T16:56:05;6.32;;;1.17;;
71637;SDS011;59485;43.542;-5.676;2022-09-20T16:58:31;8.10;;;1.23;;
71637;SDS011;59485;43.542;-5.676;2022-09-20T17:01:04;6.35;;;0.98;;
71637;SDS011;59485;43.542;-5.676;2022-09-20T17:03:30;8.52;;;2.30;;
71637;SDS011;59485;43.542;-5.676;2022-09-20T17:06:03;9.90;;;1.10;;
71637;SDS011;59485;43.542;-5.676;2022-09-20T17:08:30;7.88;;;1.50;;
71637;SDS011;59485;43.542;-5.676;2022-09-20T17:11:03;8.75;;;1.50;;
71637;SDS011;59485;43.542;-5.676;2022-09-20T17:13:32;5.65;;;1.65;;
71637;SDS011;59485;43.542;-5.676;2022-09-20T17:16:08;8.67;;;1.10;;
71637;SDS011;59485;43.542;-5.676;2022-09-20T17:18:35;8.05;;;0.80;;
71637;SDS011;59485;43.542;-5.676;2022-09-20T17:21:06;7.03;;;1.23;;
71637;SDS011;59485;43.542;-5.676;2022-09-20T17:23:40;5.20;;;1.25;;
71637;SDS011;59485;43.542;-5.676;2022-09-20T17:26:09;6.43;;;1.40;;
71637;SDS011;59485;43.542;-5.676;2022-09-20T17:28:39;10.57;;;1.40;;
71637;SDS011;59485;43.542;-5.676;2022-09-20T17:31:10;9.55;;;1.33;;
71637;SDS011;59485;43.542;-5.676;2022-09-20T17:33:41;9.93;;;1.20;;
71637;SDS011;59485;43.542;-5.676;2022-09-20T17:36:08;7.90;;;1.35;;
71637;SDS011;59485;43.542;-5.676;2022-09-20T17:38:37;6.45;;;1.70;;
71637;SDS011;59485;43.542;-5.676;2022-09-20T17:41:05;7.63;;;1.30;;
71637;SDS011;59485;43.542;-5.676;2022-09-20T17:43:38;7.03;;;1.52;;
71637;SDS011;59485;43.542;-5.676;2022-09-20T17:48:39;7.82;;;1.55;;
71637;SDS011;59485;43.542;-5.676;2022-09-20T17:51:06;9.35;;;1.75;;
71637;SDS011;59485;43.542;-5.676;2022-09-20T17:53:35;7.70;;;1.60;;
71637;SDS011;59485;43.542;-5.676;2022-09-20T17:56:01;10.52;;;1.60;;
71637;SDS011;59485;43.542;-5.676;2022-09-20T17:58:28;10.60;;;1.63;;
71637;SDS011;59485;43.542;-5.676;2022-09-20T18:01:00;6.45;;;1.40;;
71637;SDS011;59485;43.542;-5.676;2022-09-20T18:03:26;6.50;;;1.80;;
71637;SDS011;59485;43.542;-5.676;2022-09-20T18:05:52;11.03;;;1.83;;
71637;SDS011;59485;43.542;-5.676;2022-09-20T18:08:18;9.33;;;1.20;;
71637;SDS011;59485;43.542;-5.676;2022-09-20T18:10:56;8.07;;;1.20;;
71637;SDS011;59485;43.542;-5.676;2022-09-20T18:13:22;8.13;;;1.17;;
71637;SDS011;59485;43.542;-5.676;2022-09-20T18:15:51;9.07;;;1.02;;
71637;SDS011;59485;43.542;-5.676;2022-09-20T18:18:18;8.13;;;1.60;;
71637;SDS011;59485;43.542;-5.676;2022-09-20T18:20:44;9.10;;;1.58;;
71637;SDS011;59485;43.542;-5.676;2022-09-20T18:23:19;8.25;;;1.42;;
71637;SDS011;59485;43.542;-5.676;2022-09-20T18:25:44;7.17;;;1.40;;
71637;SDS011;59485;43.542;-5.676;2022-09-20T18:28:28;7.00;;;1.25;;
71637;SDS011;59485;43.542;-5.676;2022-09-20T18:30:58;5.65;;;1.45;;
71637;SDS011;59485;43.542;-5.676;2022-09-20T18:33:25;5.77;;;1.10;;
71637;SDS011;59485;43.542;-5.676;2022-09-20T18:35:51;12.68;;;1.65;;
71637;SDS011;59485;43.542;-5.676;2022-09-20T18:38:22;9.27;;;1.58;;
71637;SDS011;59485;43.542;-5.676;2022-09-20T18:40:57;7.80;;;1.30;;
71637;SDS011;59485;43.542;-5.676;2022-09-20T18:43:25;4.72;;;1.33;;
71637;SDS011;59485;43.542;-5.676;2022-09-20T18:45:55;11.65;;;1.65;;
71637;SDS011;59485;43.542;-5.676;2022-09-20T18:48:22;11.18;;;1.85;;
71637;SDS011;59485;43.542;-5.676;2022-09-20T18:50:55;9.07;;;1.80;;
71637;SDS011;59485;43.542;-5.676;2022-09-20T18:53:25;7.38;;;1.30;;
71637;SDS011;59485;43.542;-5.676;2022-09-20T18:55:52;11.38;;;1.95;;
71637;SDS011;59485;43.542;-5.676;2022-09-20T18:58:20;8.05;;;1.10;;
71637;SDS011;59485;43.542;-5.676;2022-09-20T19:00:47;8.70;;;1.50;;
71637;SDS011;59485;43.542;-5.676;2022-09-20T19:03:44;11.53;;;1.10;;
71637;SDS011;59485;43.542;-5.676;2022-09-20T19:06:18;5.55;;;0.85;;
71637;SDS011;59485;43.542;-5.676;2022-09-20T19:08:58;8.48;;;1.15;;
71637;SDS011;59485;43.542;-5.676;2022-09-20T19:11:32;6.85;;;1.55;;
71637;SDS011;59485;43.542;-5.676;2022-09-20T19:14:10;7.13;;;1.20;;
71637;SDS011;59485;43.542;-5.676;2022-09-20T19:16:46;7.37;;;0.83;;
71637;SDS011;59485;43.542;-5.676;2022-09-20T19:19:24;8.07;;;1.30;;
71637;SDS011;59485;43.542;-5.676;2022-09-20T19:22:13;9.00;;;1.85;;
71637;SDS011;59485;43.542;-5.676;2022-09-20T19:24:50;6.63;;;1.10;;
71637;SDS011;59485;43.542;-5.676;2022-09-20T19:27:27;6.47;;;1.58;;
71637;SDS011;59485;43.542;-5.676;2022-09-20T19:29:53;7.93;;;1.40;;
71637;SDS011;59485;43.542;-5.676;2022-09-20T19:32:19;7.47;;;1.02;;
71637;SDS011;59485;43.542;-5.676;2022-09-20T19:34:50;7.38;;;1.02;;
71637;SDS011;59485;43.542;-5.676;2022-09-20T19:37:42;8.63;;;1.75;;
71637;SDS011;59485;43.542;-5.676;2022-09-20T19:48:24;7.55;;;1.25;;
71637;SDS011;59485;43.542;-5.676;2022-09-20T19:51:04;5.70;;;0.70;;
71637;SDS011;59485;43.542;-5.676;2022-09-20T19:53:35;8.40;;;1.40;;
71637;SDS011;59485;43.542;-5.676;2022-09-20T19:58:49;7.97;;;1.83;;
71637;SDS011;59485;43.542;-5.676;2022-09-20T20:01:21;6.93;;;1.67;;
71637;SDS011;59485;43.542;-5.676;2022-09-20T20:03:48;9.43;;;1.98;;
71637;SDS011;59485;43.542;-5.676;2022-09-20T20:08:58;6.07;;;0.85;;
71637;SDS011;59485;43.542;-5.676;2022-09-20T20:14:11;7.05;;;1.48;;
71637;SDS011;59485;43.542;-5.676;2022-09-20T20:19:33;7.40;;;1.53;;
71637;SDS011;59485;43.542;-5.676;2022-09-20T20:22:10;10.40;;;2.08;;
71637;SDS011;59485;43.542;-5.676;2022-09-20T20:25:56;10.40;;;1.33;;
71637;SDS011;59485;43.542;-5.676;2022-09-20T20:28:17;8.00;;;1.77;;
71637;SDS011;59485;43.542;-5.676;2022-09-20T20:30:45;8.07;;;2.15;;
71637;SDS011;59485;43.542;-5.676;2022-09-20T20:33:14;6.87;;;1.60;;
71637;SDS011;59485;43.542;-5.676;2022-09-20T20:35:40;7.53;;;1.45;;
71637;SDS011;59485;43.542;-5.676;2022-09-20T20:38:05;10.10;;;1.50;;
71637;SDS011;59485;43.542;-5.676;2022-09-20T20:40:36;11.80;;;1.50;;
71637;SDS011;59485;43.542;-5.676;2022-09-20T20:43:02;7.80;;;1.65;;
71637;SDS011;59485;43.542;-5.676;2022-09-20T20:45:30;11.27;;;1.57;;
71637;SDS011;59485;43.542;-5.676;2022-09-20T20:47:56;9.35;;;2.38;;
71637;SDS011;59485;43.542;-5.676;2022-09-20T20:50:22;6.97;;;1.83;;
71637;SDS011;59485;43.542;-5.676;2022-09-20T20:52:52;5.97;;;0.90;;
71637;SDS011;59485;43.542;-5.676;2022-09-20T20:55:19;7.20;;;1.17;;
71637;SDS011;59485;43.542;-5.676;2022-09-20T20:57:50;5.43;;;0.65;;
71637;SDS011;59485;43.542;-5.676;2022-09-20T21:00:18;6.93;;;0.87;;